Time;durP1;ratioP1;P1;durP2;ratioP2;P2;SDS_P1;SDS_P2;PMS_P1;PMS_P2;Temp;Humidity;BMP_temperature;BMP_pressure;BME280_temperature;BME280_humidity;BME280_pressure;Samples;Min_cycle;Max_cycle;Signal;HPM_P1;HPM_P2
2021/07/03 00:02:17;;;;;;;18.45;11.82;;;14.30;98.10;;;;;;5012793;28;20053;-85
2021/07/03 00:04:43;;;;;;;27.42;13.68;;;14.30;98.10;;;;;;4981681;28;20493;-85
2021/07/03 00:07:09;;;;;;;23.98;14.35;;;14.30;98.10;;;;;;4996645;28;20086;-85
2021/07/03 00:09:36;;;;;;;20.05;11.50;;;14.30;98.20;;;;;;5013668;28;20041;-84
2021/07/03 00:12:06;;;;;;;13.40;7.65;;;14.20;98.10;;;;;;5011096;28;20040;-83
2021/07/03 00:14:33;;;;;;;12.00;7.57;;;14.20;97.90;;;;;;4981197;28;20061;-85
2021/07/03 00:16:59;;;;;;;9.02;6.88;;;14.20;97.80;;;;;;4978287;28;20042;-84
2021/07/03 00:19:25;;;;;;;12.90;7.53;;;14.10;97.70;;;;;;4978924;28;20445;-85
2021/07/03 00:21:51;;;;;;;11.45;7.28;;;14.00;97.50;;;;;;4995004;28;20148;-84
2021/07/03 00:24:17;;;;;;;11.80;7.20;;;14.00;97.50;;;;;;4979414;28;20163;-84
2021/07/03 00:26:43;;;;;;;14.38;7.53;;;13.90;97.50;;;;;;5015165;28;20030;-84
2021/07/03 00:29:09;;;;;;;19.27;8.40;;;13.90;97.60;;;;;;4998526;28;20029;-84
2021/07/03 00:31:36;;;;;;;11.25;7.45;;;13.80;97.60;;;;;;5013996;28;20132;-84
2021/07/03 00:34:02;;;;;;;10.07;6.75;;;13.70;97.80;;;;;;4993423;28;20077;-84
2021/07/03 00:36:28;;;;;;;10.00;6.15;;;13.70;97.80;;;;;;4994960;28;20400;-83
2021/07/03 00:38:55;;;;;;;6.18;4.40;;;13.70;98.00;;;;;;4982172;28;20493;-84
2021/07/03 00:41:20;;;;;;;10.38;5.72;;;13.60;98.00;;;;;;4993280;28;20111;-85
2021/07/03 00:43:46;;;;;;;9.13;4.40;;;13.60;98.10;;;;;;4983372;28;20496;-84
2021/07/03 00:46:13;;;;;;;9.20;5.15;;;13.50;98.10;;;;;;4994868;28;20033;-84
2021/07/03 00:48:39;;;;;;;9.60;5.50;;;13.50;98.30;;;;;;5009579;28;20025;-84
2021/07/03 00:51:05;;;;;;;10.30;5.88;;;13.50;98.50;;;;;;5008051;28;20050;-84
2021/07/03 00:53:32;;;;;;;6.03;5.43;;;13.50;98.50;;;;;;4994227;28;20045;-84
2021/07/03 00:55:58;;;;;;;6.63;5.72;;;13.40;98.60;;;;;;5008171;28;20084;-84
2021/07/03 00:58:24;;;;;;;8.27;5.47;;;13.40;98.60;;;;;;4994101;28;20045;-84
2021/07/03 01:00:51;;;;;;;10.00;6.05;;;13.40;98.70;;;;;;5028304;28;20041;-84
2021/07/03 01:03:17;;;;;;;6.78;5.10;;;13.40;98.80;;;;;;5010294;28;20092;-84
2021/07/03 01:05:43;;;;;;;13.65;6.30;;;13.30;98.80;;;;;;4984013;28;20065;-85
2021/07/03 01:08:09;;;;;;;8.10;6.30;;;13.30;98.90;;;;;;5010027;28;20076;-84
2021/07/03 01:10:36;;;;;;;8.20;7.03;;;13.30;98.90;;;;;;5007497;28;20124;-84
2021/07/03 01:13:02;;;;;;;10.32;7.20;;;13.30;98.70;;;;;;5027607;28;20395;-85
2021/07/03 01:15:28;;;;;;;11.02;7.22;;;13.30;98.80;;;;;;5009171;28;20033;-84
2021/07/03 01:17:53;;;;;;;8.38;7.03;;;13.20;98.80;;;;;;4994384;28;20033;-84
2021/07/03 01:20:19;;;;;;;10.48;7.75;;;13.20;99.10;;;;;;5010819;28;20061;-85
2021/07/03 01:22:47;;;;;;;15.25;7.15;;;13.20;99.10;;;;;;5008268;28;20046;-84
2021/07/03 01:25:14;;;;;;;11.32;7.40;;;13.20;99.10;;;;;;5007893;28;20079;-85
2021/07/03 01:27:40;;;;;;;14.57;7.10;;;13.20;99.10;;;;;;5009525;28;20030;-85
2021/07/03 01:30:09;;;;;;;12.23;7.40;;;13.20;99.10;;;;;;5007950;28;20083;-85
2021/07/03 01:32:35;;;;;;;17.55;7.70;;;13.20;99.00;;;;;;5004115;28;20029;-84
2021/07/03 01:35:02;;;;;;;11.50;7.28;;;13.20;99.00;;;;;;4994700;28;20080;-85
2021/07/03 01:37:28;;;;;;;18.08;10.05;;;13.10;99.10;;;;;;5012192;28;20033;-85
2021/07/03 01:39:54;;;;;;;6.40;4.80;;;13.10;99.20;;;;;;4995894;28;20113;-84
2021/07/03 01:42:20;;;;;;;3.88;3.15;;;13.10;99.10;;;;;;4981214;28;20042;-84
2021/07/03 01:44:46;;;;;;;7.65;3.85;;;13.10;98.90;;;;;;5007702;28;20037;-85
2021/07/03 01:47:12;;;;;;;5.90;4.18;;;13.10;98.90;;;;;;4979146;28;20108;-85
2021/07/03 01:49:40;;;;;;;12.15;5.40;;;13.10;98.90;;;;;;4994075;28;20108;-85
2021/07/03 01:52:07;;;;;;;7.32;5.10;;;13.10;99.10;;;;;;4989795;28;20045;-84
2021/07/03 01:54:34;;;;;;;12.60;6.72;;;13.00;99.10;;;;;;5005265;28;20029;-84
2021/07/03 01:57:01;;;;;;;10.63;7.80;;;13.00;99.10;;;;;;4993544;28;20579;-84
2021/07/03 01:59:33;;;;;;;9.02;6.65;;;13.00;99.30;;;;;;4990288;28;20033;-84
2021/07/03 02:02:01;;;;;;;8.32;6.80;;;13.00;99.20;;;;;;5010529;28;20033;-85
2021/07/03 02:04:28;;;;;;;10.35;7.45;;;12.90;99.10;;;;;;5007873;28;20033;-85
2021/07/03 02:06:54;;;;;;;10.32;7.18;;;12.90;99.20;;;;;;5008724;28;20038;-84
2021/07/03 02:09:21;;;;;;;13.55;9.02;;;12.90;99.30;;;;;;5000378;28;20480;-84
2021/07/03 02:11:47;;;;;;;16.33;9.27;;;12.90;99.20;;;;;;4987570;28;20034;-84
2021/07/03 02:14:14;;;;;;;13.15;8.13;;;12.80;99.20;;;;;;5026245;28;20029;-84
2021/07/03 02:16:40;;;;;;;18.02;7.97;;;12.80;99.20;;;;;;5022244;28;20040;-85
2021/07/03 02:19:07;;;;;;;12.32;6.93;;;12.80;99.40;;;;;;4992853;28;20064;-84
2021/07/03 02:21:34;;;;;;;13.77;8.95;;;12.80;99.50;;;;;;4993393;28;20045;-84
2021/07/03 02:24:01;;;;;;;20.20;10.25;;;12.80;99.40;;;;;;4968654;28;20056;-85
2021/07/03 02:26:27;;;;;;;20.27;9.18;;;12.80;99.40;;;;;;5008770;28;20034;-84
2021/07/03 02:28:53;;;;;;;7.78;4.20;;;12.70;99.40;;;;;;5009708;28;20608;-84
2021/07/03 02:31:20;;;;;;;10.18;4.10;;;12.70;99.50;;;;;;5009326;28;20041;-84
2021/07/03 02:33:46;;;;;;;10.45;5.07;;;12.70;99.60;;;;;;4993639;28;20037;-85
2021/07/03 02:36:13;;;;;;;15.98;6.85;;;12.70;99.70;;;;;;5027037;28;20048;-84
2021/07/03 02:38:39;;;;;;;24.20;7.13;;;12.70;99.60;;;;;;5011383;28;20108;-84
2021/07/03 02:41:11;;;;;;;13.73;6.20;;;12.70;99.60;;;;;;4997565;28;20044;-85
2021/07/03 02:43:37;;;;;;;8.77;5.10;;;12.70;99.70;;;;;;4997654;28;20029;-84
2021/07/03 02:46:03;;;;;;;14.27;6.80;;;12.60;99.60;;;;;;4987011;28;20033;-84
2021/07/03 02:48:29;;;;;;;21.10;7.50;;;12.60;99.60;;;;;;4982500;28;20075;-84
2021/07/03 02:50:55;;;;;;;10.95;8.73;;;12.60;99.70;;;;;;4981366;28;20136;-83
2021/07/03 02:53:20;;;;;;;12.93;9.32;;;12.60;99.60;;;;;;4979152;28;20117;-84
2021/07/03 02:55:46;;;;;;;16.45;10.43;;;12.50;99.70;;;;;;4977841;28;20080;-85
2021/07/03 02:58:17;;;;;;;17.52;10.15;;;12.50;99.80;;;;;;4978421;28;20033;-84
2021/07/03 03:00:43;;;;;;;18.35;10.13;;;12.50;99.70;;;;;;4980363;28;20033;-84
2021/07/03 03:03:09;;;;;;;18.73;11.20;;;12.50;99.80;;;;;;4988858;28;20486;-83
2021/07/03 03:05:34;;;;;;;14.57;9.70;;;12.50;99.70;;;;;;5001157;28;20037;-84
2021/07/03 03:08:00;;;;;;;10.63;8.10;;;12.50;99.80;;;;;;4974100;28;20095;-84
2021/07/03 03:10:26;;;;;;;11.73;7.00;;;12.50;99.80;;;;;;4987935;28;20506;-85
2021/07/03 03:12:52;;;;;;;13.88;6.78;;;12.40;99.60;;;;;;4990433;28;20034;-83
2021/07/03 03:15:18;;;;;;;12.38;8.85;;;12.40;99.60;;;;;;4996594;28;20040;-83
2021/07/03 03:17:45;;;;;;;17.27;10.60;;;12.40;99.60;;;;;;4983254;28;20407;-84
2021/07/03 03:20:12;;;;;;;15.25;8.75;;;12.40;99.60;;;;;;5012873;28;20050;-84
2021/07/03 03:22:39;;;;;;;14.52;9.70;;;12.40;99.70;;;;;;4996217;28;20052;-84
2021/07/03 03:25:05;;;;;;;15.80;9.95;;;12.40;99.80;;;;;;5012373;28;20041;-84
2021/07/03 03:27:32;;;;;;;16.90;9.75;;;12.40;99.80;;;;;;4994084;28;20407;-84
2021/07/03 03:29:58;;;;;;;9.35;5.95;;;12.40;99.70;;;;;;5012901;28;20033;-84
2021/07/03 03:32:24;;;;;;;9.30;5.30;;;12.40;99.70;;;;;;4985298;28;20037;-84
2021/07/03 03:34:50;;;;;;;13.38;5.90;;;12.40;99.50;;;;;;5012959;28;20029;-84
2021/07/03 03:37:17;;;;;;;9.95;6.70;;;12.30;99.50;;;;;;4995937;28;20496;-84
2021/07/03 03:39:43;;;;;;;12.30;6.88;;;12.30;99.40;;;;;;4980438;28;20087;-85
2021/07/03 03:42:09;;;;;;;12.45;5.90;;;12.30;99.30;;;;;;5012169;28;20041;-84
2021/07/03 03:44:35;;;;;;;11.20;7.53;;;12.20;99.30;;;;;;4992739;28;20029;-84
2021/07/03 03:47:01;;;;;;;14.38;7.13;;;12.20;99.40;;;;;;4987312;28;20454;-84
2021/07/03 03:49:28;;;;;;;10.82;6.22;;;12.20;99.40;;;;;;4996349;28;20053;-84
2021/07/03 03:51:54;;;;;;;12.52;7.82;;;12.20;99.40;;;;;;4977564;28;20049;-84
2021/07/03 03:54:21;;;;;;;10.75;6.10;;;12.20;99.40;;;;;;4994366;28;20109;-83
2021/07/03 03:56:47;;;;;;;12.18;6.50;;;12.20;99.50;;;;;;4993959;28;20045;-85
2021/07/03 03:59:14;;;;;;;16.73;7.32;;;12.30;99.60;;;;;;5031130;28;20040;-83
2021/07/03 04:01:40;;;;;;;13.27;6.90;;;12.30;99.70;;;;;;4988164;28;20128;-83
2021/07/03 04:04:06;;;;;;;11.27;7.43;;;12.30;99.80;;;;;;5004484;28;20524;-83
2021/07/03 04:06:32;;;;;;;15.52;9.00;;;12.40;99.80;;;;;;4995856;28;20021;-83
2021/07/03 04:08:59;;;;;;;12.73;8.32;;;12.40;99.90;;;;;;5029728;28;20048;-85
2021/07/03 04:11:24;;;;;;;16.40;8.88;;;12.40;99.80;;;;;;4992840;28;20048;-83
2021/07/03 04:13:50;;;;;;;14.90;8.23;;;12.50;99.80;;;;;;5011117;28;20041;-83
2021/07/03 04:16:16;;;;;;;12.35;6.93;;;12.50;99.90;;;;;;4977082;28;20041;-84
2021/07/03 04:18:42;;;;;;;11.80;6.88;;;12.60;99.80;;;;;;4993257;28;20037;-84
2021/07/03 04:21:07;;;;;;;14.23;7.18;;;12.60;99.70;;;;;;4978998;28;20045;-84
2021/07/03 04:23:33;;;;;;;15.50;6.60;;;12.60;99.60;;;;;;4990150;28;20026;-84
2021/07/03 04:25:59;;;;;;;10.07;6.00;;;12.70;99.60;;;;;;4995523;28;20500;-84
2021/07/03 04:28:25;;;;;;;10.77;6.40;;;12.70;99.50;;;;;;4977957;28;20105;-84
2021/07/03 04:30:51;;;;;;;12.05;6.63;;;12.70;99.50;;;;;;4987207;28;20099;-84
2021/07/03 04:33:17;;;;;;;20.58;10.63;;;12.70;99.50;;;;;;4987119;28;20057;-84
2021/07/03 04:35:43;;;;;;;23.15;16.52;;;12.80;99.70;;;;;;4993920;28;20037;-84
2021/07/03 04:38:09;;;;;;;23.35;16.17;;;12.90;99.80;;;;;;4995645;28;20040;-84
2021/07/03 04:40:35;;;;;;;23.73;15.85;;;12.90;99.90;;;;;;4993267;28;20033;-82
2021/07/03 04:43:01;;;;;;;24.50;16.63;;;12.90;99.90;;;;;;5005868;28;20044;-83
2021/07/03 04:45:26;;;;;;;23.88;15.77;;;13.00;99.90;;;;;;5003207;28;20033;-84
2021/07/03 04:47:52;;;;;;;22.38;15.90;;;13.00;99.90;;;;;;4993777;28;20029;-84
2021/07/03 04:50:18;;;;;;;23.85;16.67;;;13.00;99.90;;;;;;4994936;28;20044;-84
2021/07/03 04:52:44;;;;;;;30.13;17.92;;;13.10;99.90;;;;;;5009883;28;20061;-83
2021/07/03 04:55:11;;;;;;;22.95;16.58;;;13.10;99.90;;;;;;4978918;28;20623;-84
2021/07/03 04:57:37;;;;;;;27.48;17.55;;;13.20;99.90;;;;;;4991995;28;20117;-84
2021/07/03 05:00:04;;;;;;;23.98;17.38;;;13.20;99.90;;;;;;4960989;28;20065;-84
2021/07/03 05:02:31;;;;;;;20.75;17.40;;;13.30;99.90;;;;;;5008769;28;20132;-83
2021/07/03 05:04:57;;;;;;;22.38;17.23;;;13.30;99.90;;;;;;4994458;28;20688;-84
2021/07/03 05:07:22;;;;;;;18.00;16.08;;;13.40;99.90;;;;;;4986465;28;20033;-84
2021/07/03 05:09:49;;;;;;;17.42;15.57;;;13.40;99.90;;;;;;4995045;28;20083;-82
2021/07/03 05:12:15;;;;;;;23.95;15.52;;;13.50;99.90;;;;;;5013286;28;20527;-84
2021/07/03 05:14:40;;;;;;;22.10;15.90;;;13.60;99.90;;;;;;4981850;28;20033;-84
2021/07/03 05:17:06;;;;;;;23.92;16.85;;;13.60;99.90;;;;;;4992661;28;20040;-84
2021/07/03 05:19:32;;;;;;;21.33;15.77;;;13.70;99.90;;;;;;4978157;28;20030;-84
2021/07/03 05:21:59;;;;;;;19.95;15.80;;;13.80;99.90;;;;;;5008696;28;20041;-84
2021/07/03 05:24:25;;;;;;;22.65;16.42;;;13.90;99.90;;;;;;5010113;28;20040;-85
2021/07/03 05:26:51;;;;;;;22.88;18.25;;;14.00;99.90;;;;;;5009817;28;20265;-84
2021/07/03 05:29:17;;;;;;;19.75;15.85;;;14.10;99.90;;;;;;5025046;28;20373;-84
2021/07/03 05:31:43;;;;;;;21.17;16.38;;;14.20;99.90;;;;;;4994374;28;20037;-83
2021/07/03 05:34:09;;;;;;;23.15;15.98;;;14.30;99.90;;;;;;5010707;28;20477;-84
2021/07/03 05:36:34;;;;;;;19.30;15.68;;;14.40;99.90;;;;;;4981911;28;20053;-84
2021/07/03 05:39:04;;;;;;;26.42;17.45;;;14.50;99.90;;;;;;5009713;28;20041;-84
2021/07/03 05:41:33;;;;;;;24.20;16.40;;;14.60;99.90;;;;;;4997188;28;20043;-84
2021/07/03 05:43:58;;;;;;;21.77;16.55;;;14.70;99.90;;;;;;5024891;28;20429;-84
2021/07/03 05:46:24;;;;;;;21.35;15.75;;;14.80;99.90;;;;;;4993308;28;20124;-83
2021/07/03 05:48:50;;;;;;;24.65;17.17;;;14.80;99.90;;;;;;4989951;28;20133;-84
2021/07/03 05:51:16;;;;;;;20.27;15.85;;;14.90;99.90;;;;;;5023401;28;20108;-84
2021/07/03 05:53:42;;;;;;;22.27;16.25;;;15.00;99.90;;;;;;4967315;28;20052;-84
2021/07/03 05:56:08;;;;;;;24.42;16.33;;;15.00;99.90;;;;;;4979378;28;20041;-84
2021/07/03 05:58:34;;;;;;;23.45;14.98;;;15.10;99.90;;;;;;5008986;28;20042;-83
2021/07/03 06:01:00;;;;;;;20.75;15.20;;;15.20;99.90;;;;;;4996006;28;20116;-83
2021/07/03 06:03:26;;;;;;;21.20;15.40;;;15.30;99.90;;;;;;4982435;28;20122;-84
2021/07/03 06:05:52;;;;;;;22.75;15.48;;;15.40;99.90;;;;;;4992991;28;20464;-82
2021/07/03 06:08:17;;;;;;;19.10;14.18;;;15.40;99.90;;;;;;4991755;28;20522;-82
2021/07/03 06:10:43;;;;;;;20.65;12.15;;;15.50;99.90;;;;;;4974760;28;20046;-82
2021/07/03 06:13:09;;;;;;;21.50;13.07;;;15.60;99.90;;;;;;4987975;28;20033;-83
2021/07/03 06:15:35;;;;;;;22.52;13.50;;;15.70;99.50;;;;;;5015029;28;20089;-82
2021/07/03 06:18:01;;;;;;;16.58;12.55;;;15.80;99.40;;;;;;5004452;28;20045;-83
2021/07/03 06:20:26;;;;;;;20.52;13.82;;;15.90;99.30;;;;;;5000452;28;20068;-83
2021/07/03 06:22:52;;;;;;;22.23;14.23;;;16.00;99.30;;;;;;5019422;28;20040;-82
2021/07/03 06:25:18;;;;;;;20.10;14.25;;;16.10;99.10;;;;;;5002233;28;20034;-83
2021/07/03 06:27:44;;;;;;;20.50;14.35;;;16.30;99.00;;;;;;5025076;28;20034;-82
2021/07/03 06:30:11;;;;;;;22.20;13.30;;;16.40;99.00;;;;;;4991367;28;20067;-82
2021/07/03 06:32:38;;;;;;;19.45;12.88;;;16.50;98.80;;;;;;5011402;28;20382;-82
2021/07/03 06:35:04;;;;;;;22.52;12.20;;;16.60;98.50;;;;;;5017169;28;20041;-82
2021/07/03 06:37:30;;;;;;;20.27;12.93;;;16.80;98.50;;;;;;5012985;28;20053;-83
2021/07/03 06:39:57;;;;;;;18.85;12.40;;;16.90;98.40;;;;;;5035054;28;20044;-82
2021/07/03 06:42:24;;;;;;;20.05;12.13;;;17.00;98.40;;;;;;5015758;28;20455;-82
2021/07/03 06:44:50;;;;;;;18.45;12.20;;;17.20;98.40;;;;;;5001456;28;20042;-82
2021/07/03 06:47:17;;;;;;;19.63;13.35;;;17.30;97.70;;;;;;5029854;28;20048;-84
2021/07/03 06:49:43;;;;;;;19.80;13.48;;;17.40;97.20;;;;;;5037500;28;20068;-82
2021/07/03 06:52:10;;;;;;;23.77;12.55;;;17.30;97.00;;;;;;5013783;28;20500;-83
2021/07/03 06:54:36;;;;;;;22.63;12.10;;;17.20;96.60;;;;;;5016290;28;20029;-82
2021/07/03 06:57:03;;;;;;;17.50;12.07;;;17.20;96.80;;;;;;5016633;28;20072;-83
2021/07/03 06:59:29;;;;;;;15.82;12.20;;;17.30;96.60;;;;;;4996689;28;20029;-83
2021/07/03 07:01:56;;;;;;;20.98;12.70;;;17.40;96.30;;;;;;5005192;28;20329;-82
2021/07/03 07:04:23;;;;;;;17.58;12.15;;;17.60;96.10;;;;;;5033613;28;20061;-82
2021/07/03 07:06:50;;;;;;;24.77;12.85;;;17.80;96.10;;;;;;5015750;28;20565;-83
2021/07/03 07:09:17;;;;;;;16.92;11.52;;;17.90;95.80;;;;;;5015333;28;20037;-82
2021/07/03 07:11:43;;;;;;;17.20;11.05;;;18.00;95.60;;;;;;5013220;28;20223;-82
2021/07/03 07:14:10;;;;;;;21.98;11.02;;;18.10;96.00;;;;;;5030214;28;20083;-83
2021/07/03 07:16:35;;;;;;;18.25;10.60;;;18.20;96.00;;;;;;5012798;28;20029;-82
2021/07/03 07:19:01;;;;;;;19.52;10.13;;;18.30;95.80;;;;;;4990362;28;20041;-82
2021/07/03 07:21:27;;;;;;;16.67;10.77;;;18.40;95.80;;;;;;5029912;28;20060;-82
2021/07/03 07:23:53;;;;;;;14.90;10.40;;;18.40;95.60;;;;;;4995593;28;20481;-82
2021/07/03 07:26:19;;;;;;;24.55;11.82;;;18.50;95.20;;;;;;5013032;28;20064;-82
2021/07/03 07:28:46;;;;;;;18.48;10.90;;;18.40;94.60;;;;;;4994249;28;20049;-82
2021/07/03 07:31:11;;;;;;;18.08;10.50;;;18.40;94.80;;;;;;5029632;28;20267;-82
2021/07/03 07:33:37;;;;;;;16.27;11.73;;;18.50;95.00;;;;;;5028103;28;20034;-81
2021/07/03 07:36:03;;;;;;;15.73;10.95;;;18.50;95.10;;;;;;5025688;28;20497;-82
2021/07/03 07:38:29;;;;;;;21.27;11.18;;;18.50;95.00;;;;;;5030673;28;20311;-82
2021/07/03 07:40:56;;;;;;;18.25;10.38;;;18.60;95.00;;;;;;5028205;28;20029;-82
2021/07/03 07:43:22;;;;;;;15.98;9.85;;;18.60;95.00;;;;;;5029348;28;20034;-82
2021/07/03 07:45:47;;;;;;;18.20;10.15;;;18.70;94.90;;;;;;5026975;28;20057;-82
2021/07/03 07:48:13;;;;;;;16.13;10.60;;;18.70;94.90;;;;;;5027508;28;20067;-82
2021/07/03 07:50:39;;;;;;;18.15;10.60;;;18.70;95.00;;;;;;5010848;28;20512;-82
2021/07/03 07:53:05;;;;;;;14.25;9.80;;;18.80;95.30;;;;;;5028876;28;20111;-83
2021/07/03 07:55:31;;;;;;;17.52;11.07;;;18.90;95.10;;;;;;5030893;28;20480;-82
2021/07/03 07:57:57;;;;;;;16.52;10.75;;;18.90;94.90;;;;;;5011470;28;20033;-82
2021/07/03 08:00:23;;;;;;;15.98;10.30;;;18.80;94.80;;;;;;5011004;28;20099;-82
2021/07/03 08:02:50;;;;;;;17.90;12.25;;;18.90;94.60;;;;;;5011362;28;20033;-83
2021/07/03 08:05:17;;;;;;;18.83;10.38;;;18.80;94.50;;;;;;5011307;28;20434;-82
2021/07/03 08:07:43;;;;;;;23.30;11.57;;;18.70;94.30;;;;;;5030789;28;20382;-83
2021/07/03 08:10:11;;;;;;;18.52;12.40;;;18.70;94.60;;;;;;5013251;28;20106;-82
2021/07/03 08:12:36;;;;;;;21.23;12.15;;;18.80;94.00;;;;;;5012609;28;20056;-82
2021/07/03 08:15:04;;;;;;;18.38;12.90;;;18.70;94.00;;;;;;4996809;28;20227;-83
2021/07/03 08:17:30;;;;;;;17.48;11.90;;;18.60;93.70;;;;;;5012687;28;20061;-82
2021/07/03 08:19:57;;;;;;;21.00;11.85;;;18.60;93.70;;;;;;5011235;28;20036;-82
2021/07/03 08:22:23;;;;;;;18.92;11.75;;;18.60;93.90;;;;;;5029095;28;20037;-82
2021/07/03 08:24:49;;;;;;;20.58;11.07;;;18.60;94.00;;;;;;5009379;28;20500;-82
2021/07/03 08:27:14;;;;;;;15.80;10.10;;;18.70;93.80;;;;;;5011280;28;20029;-82
2021/07/03 08:29:40;;;;;;;20.30;10.65;;;18.80;94.10;;;;;;5029864;28;20083;-82
2021/07/03 08:32:06;;;;;;;17.27;10.35;;;18.80;94.20;;;;;;5032328;28;20076;-82
2021/07/03 08:34:32;;;;;;;15.98;10.25;;;19.00;94.40;;;;;;5001492;28;20041;-82
2021/07/03 08:36:58;;;;;;;22.58;13.32;;;19.20;94.60;;;;;;5034195;28;20033;-83
2021/07/03 08:39:24;;;;;;;28.83;16.55;;;19.30;94.10;;;;;;5016294;28;20064;-84
2021/07/03 08:41:50;;;;;;;20.10;11.80;;;19.40;93.50;;;;;;4992662;28;20052;-82
2021/07/03 08:44:17;;;;;;;22.60;13.32;;;19.50;93.40;;;;;;4996166;28;20310;-82
2021/07/03 08:46:46;;;;;;;19.95;13.80;;;19.60;93.50;;;;;;5000406;28;20045;-83
2021/07/03 08:49:16;;;;;;;21.65;13.63;;;19.80;93.40;;;;;;5000017;28;20041;-83
2021/07/03 08:51:45;;;;;;;21.63;12.38;;;19.80;92.90;;;;;;5033731;28;20124;-84
2021/07/03 08:54:11;;;;;;;21.48;13.15;;;19.80;92.50;;;;;;4994153;28;20399;-83
2021/07/03 08:56:36;;;;;;;21.77;14.32;;;19.80;92.30;;;;;;4978601;28;20041;-83
2021/07/03 08:59:13;;;;;;;21.67;13.73;;;19.80;92.50;;;;;;5011815;28;20038;-82
2021/07/03 09:01:53;;;;;;;20.20;14.00;;;19.90;92.20;;;;;;5028434;28;20116;-83
2021/07/03 09:04:19;;;;;;;19.58;12.82;;;20.10;91.70;;;;;;5010220;28;20038;-83
2021/07/03 09:06:45;;;;;;;21.65;14.85;;;20.20;92.20;;;;;;5008400;28;20096;-83
2021/07/03 09:09:11;;;;;;;21.77;12.20;;;20.20;91.90;;;;;;5014498;28;20117;-82
2021/07/03 09:11:37;;;;;;;23.60;14.02;;;20.20;91.90;;;;;;4998581;28;20064;-83
2021/07/03 09:14:07;;;;;;;23.05;14.70;;;20.30;91.50;;;;;;5014738;28;20041;-82
2021/07/03 09:16:36;;;;;;;19.75;12.88;;;20.30;91.20;;;;;;5014505;28;20049;-82
2021/07/03 09:19:04;;;;;;;17.58;12.32;;;20.40;91.10;;;;;;4993227;28;20507;-83
2021/07/03 09:21:31;;;;;;;22.27;13.45;;;20.40;91.40;;;;;;4989617;28;20050;-82
2021/07/03 09:23:59;;;;;;;20.85;13.73;;;20.50;91.70;;;;;;4998042;28;20041;-83
2021/07/03 09:26:25;;;;;;;21.33;14.10;;;20.60;91.70;;;;;;5012349;28;20033;-82
2021/07/03 09:28:51;;;;;;;17.77;12.70;;;20.60;90.90;;;;;;5013006;28;20044;-82
2021/07/03 09:31:18;;;;;;;21.30;13.73;;;20.60;91.10;;;;;;5016654;28;20045;-82
2021/07/03 09:33:52;;;;;;;21.42;13.88;;;20.60;91.90;;;;;;5012471;28;20029;-83
2021/07/03 09:36:26;;;;;;;20.92;12.63;;;20.50;92.10;;;;;;5019467;28;20120;-82
2021/07/03 09:38:54;;;;;;;24.40;12.65;;;20.50;91.80;;;;;;5031066;28;20064;-82
2021/07/03 09:41:41;;;;;;;18.80;12.23;;;20.50;91.30;;;;;;5012475;28;20072;-83
2021/07/03 09:44:09;;;;;;;18.65;11.60;;;20.50;91.10;;;;;;5028750;28;20427;-82
2021/07/03 09:46:51;;;;;;;19.10;12.15;;;20.60;91.20;;;;;;5029528;28;20432;-83
2021/07/03 09:49:17;;;;;;;;;;;20.70;91.60;;;;;;5027228;28;20148;-82
2021/07/03 09:51:45;;;;;;;23.60;12.90;;;20.60;91.50;;;;;;5029420;28;19921;-83
2021/07/03 09:54:13;;;;;;;17.33;11.30;;;20.60;91.40;;;;;;5011253;28;20049;-83
2021/07/03 09:56:40;;;;;;;18.17;11.02;;;20.70;90.80;;;;;;5010348;28;20033;-82
2021/07/03 09:59:07;;;;;;;12.77;9.80;;;20.70;90.30;;;;;;5027146;28;20030;-82
2021/07/03 10:01:33;;;;;;;18.33;10.38;;;20.70;90.30;;;;;;5024821;28;20038;-82
2021/07/03 10:04:02;;;;;;;14.23;10.20;;;20.60;90.40;;;;;;5009499;28;20137;-82
2021/07/03 10:06:36;;;;;;;15.57;9.38;;;20.70;89.60;;;;;;5010591;28;20064;-82
2021/07/03 10:09:07;;;;;;;18.38;11.80;;;20.70;90.30;;;;;;5025921;28;20128;-82
2021/07/03 10:11:45;;;;;;;15.07;11.53;;;20.80;90.10;;;;;;5010548;28;20072;-82
2021/07/03 10:14:12;;;;;;;17.05;12.40;;;20.80;90.10;;;;;;5011317;28;20280;-82
2021/07/03 10:16:38;;;;;;;21.48;12.23;;;20.90;90.00;;;;;;5027440;28;20061;-82
2021/07/03 10:19:16;;;;;;;18.90;11.13;;;20.90;90.20;;;;;;5008809;28;20479;-82
2021/07/03 10:21:43;;;;;;;18.55;12.32;;;21.00;90.30;;;;;;5027706;28;20037;-82
2021/07/03 10:24:21;;;;;;;16.48;12.40;;;21.00;90.00;;;;;;4990226;28;20030;-82
2021/07/03 10:26:50;;;;;;;15.88;10.55;;;21.00;89.30;;;;;;5004044;28;20435;-82
2021/07/03 10:29:21;;;;;;;16.58;10.30;;;21.00;90.10;;;;;;5027249;28;20040;-81
2021/07/03 10:31:49;;;;;;;16.33;11.10;;;21.10;90.50;;;;;;5009861;28;20037;-82
2021/07/03 10:34:26;;;;;;;18.60;11.10;;;21.10;90.30;;;;;;4994541;28;20036;-82
2021/07/03 10:37:02;;;;;;;17.20;11.32;;;21.20;89.60;;;;;;5013515;28;20033;-82
2021/07/03 10:39:32;;;;;;;15.82;11.07;;;21.20;88.40;;;;;;5010894;28;20037;-82
2021/07/03 10:41:59;;;;;;;17.55;11.23;;;21.30;87.80;;;;;;4996613;28;20044;-82
2021/07/03 10:44:39;;;;;;;14.57;10.48;;;21.30;87.30;;;;;;4997922;28;20044;-82
2021/07/03 10:47:10;;;;;;;14.43;9.55;;;21.40;87.60;;;;;;5010451;28;20076;-83
2021/07/03 10:49:38;;;;;;;13.25;9.20;;;21.40;86.10;;;;;;4990483;28;20526;-81
2021/07/03 10:52:13;;;;;;;14.88;9.93;;;21.40;85.90;;;;;;5000752;28;20339;-82
2021/07/03 10:54:39;;;;;;;14.27;9.50;;;21.50;86.40;;;;;;5012993;28;20030;-82
2021/07/03 10:57:07;;;;;;;16.05;10.20;;;21.50;87.00;;;;;;5016212;28;20162;-82
2021/07/03 10:59:36;;;;;;;20.90;10.52;;;21.60;87.30;;;;;;5006826;28;20044;-82
2021/07/03 11:02:16;;;;;;;14.18;10.10;;;21.60;85.70;;;;;;5036218;28;20040;-81
2021/07/03 11:04:46;;;;;;;13.57;8.95;;;21.60;84.50;;;;;;5017551;28;20102;-81
2021/07/03 11:07:15;;;;;;;13.73;8.23;;;21.60;85.10;;;;;;5013272;28;20511;-81
2021/07/03 11:09:41;;;;;;;12.70;8.43;;;21.60;85.90;;;;;;5035362;28;20466;-82
2021/07/03 11:12:20;;;;;;;17.42;8.57;;;21.60;84.90;;;;;;5000746;28;20033;-82
2021/07/03 11:14:57;;;;;;;15.18;10.07;;;21.70;85.50;;;;;;5032485;28;20160;-82
2021/07/03 11:17:25;;;;;;;13.05;8.45;;;21.70;85.60;;;;;;5013457;28;20029;-82
2021/07/03 11:19:53;;;;;;;14.93;8.18;;;21.70;86.10;;;;;;4997889;28;20042;-82
2021/07/03 11:22:23;;;;;;;12.00;7.43;;;21.80;84.40;;;;;;4995478;28;20493;-81
2021/07/03 11:24:55;;;;;;;11.85;7.32;;;21.80;82.80;;;;;;5031412;28;20506;-81
2021/07/03 11:27:39;;;;;;;10.90;7.68;;;21.80;83.90;;;;;;4997208;28;20046;-81
2021/07/03 11:30:08;;;;;;;19.08;9.68;;;21.90;85.60;;;;;;5016758;28;20040;-81
2021/07/03 11:32:34;;;;;;;15.70;8.85;;;21.90;86.60;;;;;;5017344;28;20093;-82
2021/07/03 11:35:05;;;;;;;14.25;8.70;;;21.90;86.30;;;;;;5000739;28;20072;-82
2021/07/03 11:37:36;;;;;;;9.88;7.53;;;22.00;85.40;;;;;;5009572;28;20030;-82
2021/07/03 11:40:07;;;;;;;11.27;8.20;;;22.00;85.00;;;;;;5033759;28;20060;-81
2021/07/03 11:42:36;;;;;;;16.17;8.60;;;22.00;85.30;;;;;;5034112;28;20029;-83
2021/07/03 11:45:06;;;;;;;13.90;8.75;;;22.00;85.80;;;;;;5016164;28;20045;-82
2021/07/03 11:47:38;;;;;;;12.38;8.30;;;22.00;84.60;;;;;;5010988;28;20061;-82
2021/07/03 11:50:07;;;;;;;12.63;7.43;;;22.00;84.70;;;;;;5032187;28;20043;-82
2021/07/03 11:52:44;;;;;;;11.52;8.55;;;22.00;86.00;;;;;;5030365;28;20397;-82
2021/07/03 11:55:11;;;;;;;12.38;8.18;;;22.00;84.50;;;;;;5025830;28;20033;-82
2021/07/03 11:57:39;;;;;;;15.77;8.10;;;22.10;83.60;;;;;;5010758;28;20519;-81
2021/07/03 12:00:05;;;;;;;9.85;7.38;;;22.10;83.80;;;;;;4996964;28;20125;-82
2021/07/03 12:02:31;;;;;;;10.35;7.50;;;22.00;83.10;;;;;;5024272;28;20037;-82
2021/07/03 12:05:47;;;;;;;11.00;7.10;;;21.90;84.60;;;;;;5013166;28;20052;-85
2021/07/03 12:08:43;;;;;;;8.30;6.20;;;22.00;84.20;;;;;;4914074;29;20430;-86
2021/07/03 12:11:11;;;;;;;9.30;5.60;;;22.10;83.40;;;;;;4930838;29;20082;-86
2021/07/03 12:13:46;;;;;;;14.00;7.10;;;22.20;83.00;;;;;;4988372;28;20053;-86
2021/07/03 12:16:14;;;;;;;11.02;6.72;;;22.20;82.10;;;;;;5011363;28;20040;-86
2021/07/03 12:18:40;;;;;;;10.18;7.13;;;22.30;82.40;;;;;;5011412;28;20034;-87
2021/07/03 12:21:36;;;;;;;12.02;7.55;;;22.40;81.40;;;;;;5007965;28;20400;-85
2021/07/03 12:24:12;;;;;;;10.00;6.95;;;22.50;77.50;;;;;;5007130;28;20103;-85
2021/07/03 12:26:43;;;;;;;11.07;6.65;;;22.50;79.50;;;;;;4992521;28;20034;-86
2021/07/03 12:29:14;;;;;;;10.35;7.13;;;22.50;78.50;;;;;;5011755;28;20029;-87
2021/07/03 12:31:45;;;;;;;11.02;6.70;;;22.50;77.50;;;;;;4992488;28;20045;-85
2021/07/03 12:34:22;;;;;;;10.57;5.38;;;22.40;78.00;;;;;;5013320;28;20041;-86
2021/07/03 12:36:50;;;;;;;9.73;6.50;;;22.40;78.90;;;;;;5010758;28;20523;-86